Winslow Park, Kentucky
Current Conditions -  °F | °C
As of 2:35 PM on Friday 19 Dec 2014 (Local Time) from K5M9 Reporting Station
Overcast Overcast  
Wind Chill: 38°   Ceiling: 4000
Heat Index: 38°   Visibility: 10mi
Dew Point: 26°   Wind: 0mph
Humidity: 63%   Direction: NA
Pressure: 30.27"   Gusts: NA
Location:  37.3359°N, 88.1049°W
Report Text: K5M9 192035Z AUTO 00000KT 10SM OVC040 03/M03 A3027 RMK AO2 T00311033
Loading
Personal Weather Stations






























Interactive Weather Map New forecast layout! Learn more

10-Day Weather Forecast

Advertisements
Track Severe Weather on mobile